Time;durP1;ratioP1;P1;durP2;ratioP2;P2;SDS_P1;SDS_P2;PMS_P1;PMS_P2;Temp;Humidity;BMP_temperature;BMP_pressure;BME280_temperature;BME280_humidity;BME280_pressure;Samples;Min_cycle;Max_cycle;Signal;HPM_P1;HPM_P2
2022/10/31 00:02:02;;;;;;;7.93;6.22;;;14.30;99.90;;;;;;5066006;28;20097;-40
2022/10/31 00:04:28;;;;;;;10.02;6.78;;;14.30;99.90;;;;;;5077728;28;20025;-40
2022/10/31 00:06:53;;;;;;;9.60;6.80;;;14.30;99.90;;;;;;5065070;28;20028;-40
2022/10/31 00:09:19;;;;;;;9.32;6.00;;;14.30;99.90;;;;;;5077571;28;20020;-38
2022/10/31 00:11:44;;;;;;;10.00;6.65;;;14.30;99.90;;;;;;5065175;28;20025;-37
2022/10/31 00:14:10;;;;;;;8.60;6.70;;;14.30;99.90;;;;;;5073968;28;20032;-41
2022/10/31 00:16:36;;;;;;;8.93;6.40;;;14.20;99.90;;;;;;5067703;28;20020;-37
2022/10/31 00:19:03;;;;;;;9.13;6.78;;;14.20;99.90;;;;;;5072356;28;20036;-39
2022/10/31 00:21:30;;;;;;;8.52;6.47;;;14.20;99.90;;;;;;5068670;28;20373;-39
2022/10/31 00:23:58;;;;;;;8.32;7.32;;;14.20;99.90;;;;;;5070649;28;20111;-43
2022/10/31 00:26:24;;;;;;;7.13;6.43;;;14.20;99.90;;;;;;5072051;28;20483;-37
2022/10/31 00:28:50;;;;;;;8.88;6.80;;;14.20;99.90;;;;;;5068407;28;20016;-39
2022/10/31 00:31:16;;;;;;;8.10;6.43;;;14.20;99.90;;;;;;5074887;28;20124;-38
2022/10/31 00:33:42;;;;;;;8.55;7.03;;;14.20;99.90;;;;;;5066229;28;20533;-39
2022/10/31 00:36:12;;;;;;;10.43;6.90;;;14.20;99.90;;;;;;5075641;28;20025;-38
2022/10/31 00:38:37;;;;;;;8.20;6.55;;;14.20;99.90;;;;;;5066232;28;20097;-38
2022/10/31 00:41:03;;;;;;;8.65;6.82;;;14.10;99.90;;;;;;5076128;28;20021;-40
2022/10/31 00:43:29;;;;;;;7.68;6.38;;;14.10;99.90;;;;;;5064834;28;20454;-39
2022/10/31 00:45:54;;;;;;;8.43;6.50;;;14.10;99.90;;;;;;5077310;28;20027;-38
2022/10/31 00:48:20;;;;;;;9.52;6.82;;;14.10;99.90;;;;;;5063712;28;20476;-40
2022/10/31 00:50:45;;;;;;;8.25;6.60;;;14.10;99.90;;;;;;5077383;28;20020;-39
2022/10/31 00:53:11;;;;;;;9.45;6.82;;;14.10;99.90;;;;;;5063983;28;20143;-40
2022/10/31 00:55:36;;;;;;;9.65;6.80;;;14.10;99.90;;;;;;5074794;28;20021;-39
2022/10/31 00:58:02;;;;;;;10.90;7.30;;;14.10;99.90;;;;;;5066873;28;20654;-33
2022/10/31 01:00:27;;;;;;;10.10;7.18;;;14.10;99.90;;;;;;5067590;28;20024;-38
2022/10/31 01:02:53;;;;;;;9.40;6.93;;;14.10;99.90;;;;;;5079517;28;20050;-38
2022/10/31 01:05:19;;;;;;;8.63;6.93;;;14.10;99.90;;;;;;5078449;28;20563;-39
2022/10/31 01:07:44;;;;;;;7.28;6.32;;;14.10;99.90;;;;;;5067025;28;20035;-40
2022/10/31 01:10:10;;;;;;;8.55;6.90;;;14.10;99.90;;;;;;5066084;28;20028;-38
2022/10/31 01:12:48;;;;;;;8.98;7.35;;;14.10;99.90;;;;;;5072855;28;20035;-39
2022/10/31 01:15:18;;;;;;;9.25;6.57;;;14.10;99.90;;;;;;5065350;28;20032;-39
2022/10/31 01:17:47;;;;;;;8.30;6.80;;;14.10;99.90;;;;;;5073471;28;20640;-40
2022/10/31 01:20:14;;;;;;;9.43;6.88;;;14.10;99.90;;;;;;5063766;28;20064;-39
2022/10/31 01:22:40;;;;;;;8.52;6.57;;;14.10;99.90;;;;;;5074510;28;20029;-37
2022/10/31 01:25:07;;;;;;;8.60;6.78;;;14.10;99.90;;;;;;5063460;28;20441;-41
2022/10/31 01:27:33;;;;;;;7.13;6.32;;;14.10;99.90;;;;;;5074754;28;20762;-37
2022/10/31 01:29:58;;;;;;;8.50;6.57;;;14.10;99.90;;;;;;5063076;28;20031;-39
2022/10/31 01:32:24;;;;;;;7.60;6.65;;;14.10;99.90;;;;;;5074362;28;20083;-40
2022/10/31 01:34:50;;;;;;;8.93;7.30;;;14.00;99.90;;;;;;5064145;28;20103;-39
2022/10/31 01:37:15;;;;;;;8.27;6.97;;;14.00;99.90;;;;;;5075397;28;20113;-35
2022/10/31 01:39:41;;;;;;;8.32;6.13;;;14.00;99.90;;;;;;5064079;28;20494;-39
2022/10/31 01:42:06;;;;;;;9.20;7.30;;;14.00;99.90;;;;;;5073477;28;20042;-40
2022/10/31 01:44:32;;;;;;;7.72;6.47;;;13.90;99.90;;;;;;5065465;28;20319;-38
2022/10/31 01:47:18;;;;;;;7.65;6.65;;;13.90;99.90;;;;;;5070753;28;20032;-38
2022/10/31 01:49:53;;;;;;;9.05;6.85;;;13.90;99.90;;;;;;5065942;28;20060;-37
2022/10/31 01:52:32;;;;;;;8.48;6.80;;;13.80;99.90;;;;;;5071522;28;20518;-40
2022/10/31 01:55:00;;;;;;;9.80;6.95;;;13.70;99.90;;;;;;5065364;28;20057;-37
2022/10/31 01:57:27;;;;;;;9.73;6.93;;;13.70;99.90;;;;;;5071940;28;20060;-40
2022/10/31 01:59:58;;;;;;;9.77;7.38;;;13.70;99.90;;;;;;5067401;28;20025;-37
2022/10/31 02:02:25;;;;;;;10.00;6.90;;;13.70;99.90;;;;;;5070322;28;20024;-37
2022/10/31 02:04:52;;;;;;;8.73;6.10;;;13.70;99.90;;;;;;5069456;28;20032;-39
2022/10/31 02:07:24;;;;;;;8.88;6.60;;;13.70;99.90;;;;;;5067398;28;20042;-39
2022/10/31 02:09:51;;;;;;;8.13;6.47;;;13.60;99.90;;;;;;5070514;28;20070;-38
2022/10/31 02:12:18;;;;;;;8.55;6.47;;;13.60;99.90;;;;;;5068697;28;20032;-38
2022/10/31 02:14:44;;;;;;;8.45;6.28;;;13.60;99.90;;;;;;5073864;28;20054;-37
2022/10/31 02:17:09;;;;;;;8.52;6.97;;;13.60;99.90;;;;;;5081656;28;20471;-38
2022/10/31 02:19:57;;;;;;;8.23;7.05;;;13.60;99.90;;;;;;5071904;28;20028;-37
2022/10/31 02:22:39;;;;;;;8.48;6.80;;;13.60;99.90;;;;;;5081961;28;20027;-40
2022/10/31 02:25:35;;;;;;;8.80;6.55;;;13.60;99.90;;;;;;5074758;28;20555;-39
2022/10/31 02:28:38;;;;;;;7.65;6.35;;;13.60;99.90;;;;;;5077768;28;20036;-41
2022/10/31 02:31:16;;;;;;;;;;;13.50;99.90;;;;;;5081412;28;20490;-38
2022/10/31 02:33:50;;;;;;;7.72;6.80;;;13.50;99.90;;;;;;5072652;28;20019;-41
2022/10/31 02:36:27;;;;;;;8.68;7.00;;;13.40;99.90;;;;;;5080695;28;20492;-34
2022/10/31 02:38:55;;;;;;;8.57;7.47;;;13.40;99.90;;;;;;5074069;28;20028;-39
2022/10/31 02:41:35;;;;;;;8.77;7.03;;;13.30;99.90;;;;;;5081802;28;20738;-40
2022/10/31 02:44:13;;;;;;;8.43;6.97;;;13.30;99.90;;;;;;5079399;28;20046;-35
2022/10/31 02:47:08;;;;;;;10.25;7.38;;;13.30;99.90;;;;;;5086463;28;20028;-40
2022/10/31 02:49:53;;;;;;;8.30;6.85;;;13.20;99.90;;;;;;5063328;28;20044;-39
2022/10/31 02:52:21;;;;;;;10.90;7.13;;;13.20;99.90;;;;;;5067295;28;20032;-38
2022/10/31 02:54:47;;;;;;;8.38;7.20;;;13.20;99.90;;;;;;5078911;28;20020;-40
2022/10/31 02:57:15;;;;;;;9.98;8.00;;;13.10;99.90;;;;;;5067603;28;20024;-40
2022/10/31 02:59:46;;;;;;;12.57;8.50;;;13.10;99.90;;;;;;5077572;28;20024;-39
2022/10/31 03:02:41;;;;;;;9.23;7.30;;;13.10;99.90;;;;;;5067634;28;20029;-38
2022/10/31 03:05:31;;;;;;;11.93;8.02;;;13.10;99.90;;;;;;5040826;28;20036;-39
2022/10/31 03:08:26;;;;;;;9.07;7.60;;;13.10;99.90;;;;;;5067539;28;20039;-36
2022/10/31 03:11:01;;;;;;;10.70;7.40;;;13.10;99.90;;;;;;5057226;28;20039;-39
2022/10/31 03:13:58;;;;;;;10.63;7.85;;;13.10;99.90;;;;;;5086492;28;20489;-38
2022/10/31 03:16:34;;;;;;;9.23;7.68;;;13.00;99.90;;;;;;5076689;28;20059;-38
2022/10/31 03:19:12;;;;;;;10.95;9.07;;;13.10;99.90;;;;;;5067769;28;20033;-40
2022/10/31 03:21:45;;;;;;;12.93;7.78;;;13.00;99.90;;;;;;5077879;28;20563;-39
2022/10/31 03:24:13;;;;;;;11.70;7.43;;;13.00;99.90;;;;;;5066870;28;20036;-39
2022/10/31 03:26:42;;;;;;;10.40;7.80;;;13.00;99.90;;;;;;5077876;28;20138;-37
2022/10/31 03:29:10;;;;;;;10.95;7.82;;;13.00;99.90;;;;;;5066748;28;20047;-38
2022/10/31 03:31:44;;;;;;;9.75;7.68;;;13.00;99.90;;;;;;5077297;28;20465;-39
2022/10/31 03:34:12;;;;;;;9.90;7.75;;;13.00;99.90;;;;;;5065393;28;20059;-37
2022/10/31 03:36:39;;;;;;;9.40;7.57;;;12.90;99.90;;;;;;5077734;28;20762;-39
2022/10/31 03:39:09;;;;;;;8.40;7.47;;;12.90;99.90;;;;;;5065216;28;20067;-39
2022/10/31 03:41:41;;;;;;;9.50;7.18;;;12.90;99.90;;;;;;5078197;28;20107;-38
2022/10/31 03:44:12;;;;;;;11.48;7.70;;;12.90;99.90;;;;;;5064994;28;20032;-39
2022/10/31 03:46:38;;;;;;;10.15;7.95;;;12.80;99.90;;;;;;5078346;28;20024;-39
2022/10/31 03:49:04;;;;;;;8.52;7.57;;;12.80;99.90;;;;;;5066512;28;20035;-39
2022/10/31 03:51:32;;;;;;;9.38;7.47;;;12.70;99.90;;;;;;5075254;28;20028;-38
2022/10/31 03:54:07;;;;;;;10.00;7.32;;;12.70;99.90;;;;;;5066802;28;20480;-41
2022/10/31 03:56:46;;;;;;;10.63;7.90;;;12.70;99.90;;;;;;5075988;28;20032;-33
2022/10/31 03:59:26;;;;;;;12.68;8.02;;;12.60;99.90;;;;;;5065244;28;20032;-39
2022/10/31 04:01:57;;;;;;;8.63;7.70;;;12.60;99.90;;;;;;5077208;28;20020;-38
2022/10/31 04:04:23;;;;;;;9.68;7.80;;;12.60;99.90;;;;;;5065495;28;20028;-37
2022/10/31 04:06:51;;;;;;;9.27;7.95;;;12.60;99.90;;;;;;5073975;28;20777;-38
2022/10/31 04:09:19;;;;;;;11.43;7.75;;;12.50;99.90;;;;;;5068337;28;20115;-39
2022/10/31 04:11:51;;;;;;;8.75;7.85;;;12.50;99.90;;;;;;5072405;28;20027;-40
2022/10/31 04:14:16;;;;;;;11.50;8.00;;;12.50;99.90;;;;;;5069024;28;20041;-39
2022/10/31 04:16:43;;;;;;;9.32;8.02;;;12.60;99.90;;;;;;5070737;28;20025;-39
2022/10/31 04:19:14;;;;;;;9.60;7.50;;;12.60;99.90;;;;;;5071022;28;20408;-37
2022/10/31 04:21:43;;;;;;;11.57;7.35;;;12.50;99.90;;;;;;5069284;28;20539;-39
2022/10/31 04:24:08;;;;;;;10.00;8.15;;;12.50;99.90;;;;;;5074025;28;20063;-40
2022/10/31 04:26:34;;;;;;;10.93;8.73;;;12.50;99.90;;;;;;5066756;28;20776;-37
2022/10/31 04:29:00;;;;;;;10.10;8.05;;;12.50;99.90;;;;;;5077353;28;20535;-39
2022/10/31 04:31:26;;;;;;;11.00;8.25;;;12.50;99.90;;;;;;5066578;28;20031;-39
2022/10/31 04:33:54;;;;;;;13.05;8.90;;;12.40;99.90;;;;;;5075898;28;20048;-40
2022/10/31 04:36:20;;;;;;;9.45;8.10;;;12.50;99.90;;;;;;5065559;28;20017;-36
2022/10/31 04:38:45;;;;;;;11.02;8.00;;;12.50;99.90;;;;;;5077511;28;20020;-38
2022/10/31 04:41:11;;;;;;;11.50;8.18;;;12.50;99.90;;;;;;5064409;28;20021;-38
2022/10/31 04:43:36;;;;;;;10.25;7.88;;;12.50;99.90;;;;;;5077705;28;20122;-37
2022/10/31 04:46:02;;;;;;;10.40;8.45;;;12.50;99.90;;;;;;5064435;28;20110;-40
2022/10/31 04:48:28;;;;;;;10.77;8.45;;;12.50;99.90;;;;;;5074457;28;20020;-40
2022/10/31 04:51:01;;;;;;;9.55;8.52;;;12.50;99.90;;;;;;5065462;28;20109;-41
2022/10/31 04:53:27;;;;;;;12.20;8.95;;;12.50;99.90;;;;;;5073723;28;20627;-38
2022/10/31 04:55:53;;;;;;;12.63;9.50;;;12.50;99.90;;;;;;5066527;28;20020;-36
2022/10/31 04:58:18;;;;;;;11.82;9.07;;;12.50;99.90;;;;;;5070748;28;20036;-37
2022/10/31 05:00:44;;;;;;;12.05;8.52;;;12.50;99.90;;;;;;5070699;28;20400;-40
2022/10/31 05:03:09;;;;;;;11.60;8.80;;;12.50;99.90;;;;;;5067934;28;20402;-37
2022/10/31 05:05:38;;;;;;;10.40;8.75;;;12.50;99.90;;;;;;5072745;28;20490;-40
2022/10/31 05:08:04;;;;;;;12.05;9.27;;;12.50;99.90;;;;;;5066909;28;20028;-39
2022/10/31 05:10:30;;;;;;;10.25;8.98;;;12.50;99.90;;;;;;5074391;28;20028;-39
2022/10/31 05:12:59;;;;;;;11.93;9.15;;;12.40;99.90;;;;;;5065775;28;20027;-39
2022/10/31 05:15:26;;;;;;;12.35;9.00;;;12.40;99.90;;;;;;5074923;28;20067;-39
2022/10/31 05:17:53;;;;;;;11.63;9.18;;;12.40;99.90;;;;;;5065396;28;20040;-39
2022/10/31 05:20:21;;;;;;;14.40;9.45;;;12.40;99.90;;;;;;5075153;28;20064;-38
2022/10/31 05:22:49;;;;;;;11.93;9.10;;;12.40;99.90;;;;;;5063492;28;20059;-40
2022/10/31 05:25:15;;;;;;;11.82;9.35;;;12.30;99.90;;;;;;5076037;28;20041;-39
2022/10/31 05:27:48;;;;;;;10.65;9.15;;;12.30;99.90;;;;;;5064112;28;20382;-38
2022/10/31 05:30:17;;;;;;;10.13;8.73;;;12.30;99.90;;;;;;5075416;28;20479;-38
2022/10/31 05:32:48;;;;;;;13.07;9.85;;;12.30;99.90;;;;;;5064516;28;20052;-39
2022/10/31 05:35:16;;;;;;;11.43;9.45;;;12.30;99.90;;;;;;5076585;28;20475;-39
2022/10/31 05:37:42;;;;;;;12.55;9.32;;;12.30;99.90;;;;;;5064101;28;20492;-40
2022/10/31 05:40:10;;;;;;;12.45;9.68;;;12.40;99.90;;;;;;5074559;28;20032;-38
2022/10/31 05:42:37;;;;;;;9.80;8.80;;;12.40;99.90;;;;;;5065068;28;20484;-39
2022/10/31 05:45:03;;;;;;;11.40;9.50;;;12.40;99.90;;;;;;5072257;28;20084;-38
2022/10/31 05:47:29;;;;;;;11.52;9.77;;;12.40;99.90;;;;;;5067381;28;20028;-39
2022/10/31 05:49:54;;;;;;;12.35;9.43;;;12.40;99.90;;;;;;5070153;28;20039;-39
2022/10/31 05:52:20;;;;;;;11.10;9.88;;;12.50;99.90;;;;;;5069661;28;20070;-40
2022/10/31 05:54:45;;;;;;;13.60;10.60;;;12.50;99.90;;;;;;5067012;28;20028;-37
2022/10/31 05:57:11;;;;;;;15.27;9.75;;;12.50;99.90;;;;;;5072400;28;20044;-36
2022/10/31 05:59:37;;;;;;;11.88;10.07;;;12.50;99.90;;;;;;5064077;28;20028;-37
2022/10/31 06:02:02;;;;;;;13.05;9.90;;;12.60;99.90;;;;;;5075137;28;20048;-39
2022/10/31 06:04:28;;;;;;;14.77;10.00;;;12.60;99.90;;;;;;5064200;28;20078;-39
2022/10/31 06:06:53;;;;;;;13.35;10.05;;;12.60;99.90;;;;;;5075196;28;20025;-37
2022/10/31 06:09:19;;;;;;;14.38;10.23;;;12.60;99.90;;;;;;5063355;28;20044;-37
2022/10/31 06:11:44;;;;;;;13.75;9.88;;;12.60;99.90;;;;;;5073759;28;20021;-39
2022/10/31 06:14:10;;;;;;;11.85;9.82;;;12.60;99.90;;;;;;5063168;28;20064;-40
2022/10/31 06:16:35;;;;;;;12.23;10.15;;;12.60;99.90;;;;;;5075397;28;20032;-40
2022/10/31 06:19:01;;;;;;;14.10;10.52;;;12.60;99.90;;;;;;5063147;28;20052;-39
2022/10/31 06:21:26;;;;;;;13.07;10.38;;;12.50;99.90;;;;;;5072725;28;20044;-39
2022/10/31 06:23:52;;;;;;;12.05;9.55;;;12.50;99.90;;;;;;5065523;28;20027;-38
2022/10/31 06:26:17;;;;;;;11.73;10.27;;;12.50;99.90;;;;;;5067358;28;20528;-39
2022/10/31 06:28:43;;;;;;;12.85;10.35;;;12.40;99.90;;;;;;5067306;28;20116;-39
2022/10/31 06:31:08;;;;;;;12.93;9.95;;;12.40;99.90;;;;;;5066698;28;20027;-39
2022/10/31 06:33:34;;;;;;;13.00;10.18;;;12.30;99.90;;;;;;5069334;28;20056;-40
2022/10/31 06:36:00;;;;;;;14.05;10.02;;;12.30;99.90;;;;;;5064484;28;20147;-39
2022/10/31 06:38:27;;;;;;;14.52;10.65;;;12.30;99.90;;;;;;5072244;28;20032;-39
2022/10/31 06:40:55;;;;;;;14.75;10.88;;;12.30;99.90;;;;;;5062691;28;20020;-41
2022/10/31 06:43:21;;;;;;;13.40;10.40;;;12.30;99.90;;;;;;5073425;28;20029;-36
2022/10/31 06:45:50;;;;;;;15.52;10.43;;;12.30;99.90;;;;;;5064330;28;20031;-39
2022/10/31 06:48:15;;;;;;;12.93;10.70;;;12.30;99.90;;;;;;5073333;28;20033;-37
2022/10/31 06:50:41;;;;;;;15.80;11.15;;;12.30;99.90;;;;;;5062952;28;20027;-38
2022/10/31 06:53:07;;;;;;;13.20;10.75;;;12.30;99.90;;;;;;5075254;28;20043;-39
2022/10/31 06:55:33;;;;;;;15.45;11.15;;;12.20;99.90;;;;;;5062954;28;20036;-40
2022/10/31 06:58:00;;;;;;;18.02;11.88;;;12.30;99.90;;;;;;5069978;28;20088;-39
2022/10/31 07:00:27;;;;;;;14.32;11.10;;;12.30;99.90;;;;;;5077617;28;20051;-39
2022/10/31 07:02:55;;;;;;;15.05;11.35;;;12.30;99.90;;;;;;5073036;28;20420;-40
2022/10/31 07:05:24;;;;;;;15.38;12.05;;;12.30;99.90;;;;;;5060051;28;20071;-39
2022/10/31 07:08:01;;;;;;;13.13;10.93;;;12.30;99.90;;;;;;5066617;28;20024;-40
2022/10/31 07:10:28;;;;;;;11.65;9.98;;;12.30;99.90;;;;;;5072034;28;20120;-40
2022/10/31 07:12:58;;;;;;;13.00;10.23;;;12.30;99.90;;;;;;5067823;28;20086;-39
2022/10/31 07:15:25;;;;;;;11.45;9.98;;;12.30;99.90;;;;;;5069199;28;20395;-37
2022/10/31 07:17:50;;;;;;;15.25;11.63;;;12.30;99.90;;;;;;5065942;28;20024;-36
2022/10/31 07:20:16;;;;;;;14.15;10.68;;;12.30;99.90;;;;;;5062289;28;20036;-38
2022/10/31 07:22:42;;;;;;;15.35;11.15;;;12.30;99.90;;;;;;5075280;28;20016;-39
2022/10/31 07:25:08;;;;;;;14.80;11.20;;;12.40;99.90;;;;;;5062365;28;20059;-39
2022/10/31 07:27:38;;;;;;;18.50;11.63;;;12.40;99.90;;;;;;5073310;28;20029;-39
2022/10/31 07:30:09;;;;;;;17.08;11.90;;;12.50;99.90;;;;;;5066869;28;20036;-36
2022/10/31 07:32:43;;;;;;;13.35;10.85;;;12.50;99.90;;;;;;5069413;28;20079;-40
2022/10/31 07:35:10;;;;;;;14.55;11.25;;;12.60;99.90;;;;;;5066015;28;20141;-38
2022/10/31 07:37:36;;;;;;;13.85;11.18;;;12.70;99.90;;;;;;5068217;28;20136;-40
2022/10/31 07:40:03;;;;;;;15.20;11.77;;;12.70;99.90;;;;;;5068748;28;20123;-40
2022/10/31 07:42:28;;;;;;;14.70;11.65;;;12.80;99.90;;;;;;5071066;28;20051;-38
2022/10/31 07:44:54;;;;;;;14.85;11.02;;;12.80;99.90;;;;;;5072427;28;20107;-40
2022/10/31 07:47:20;;;;;;;15.00;11.68;;;12.80;99.90;;;;;;5070352;28;20115;-40
2022/10/31 07:49:45;;;;;;;13.43;11.18;;;12.80;99.90;;;;;;5066287;28;20035;-40
2022/10/31 07:52:11;;;;;;;15.27;11.48;;;12.80;99.90;;;;;;5069932;28;20471;-38
2022/10/31 07:54:36;;;;;;;15.30;11.20;;;12.90;99.90;;;;;;5072944;28;20036;-39
2022/10/31 07:57:02;;;;;;;14.13;11.43;;;12.90;99.90;;;;;;5063685;28;20025;-38
2022/10/31 07:59:27;;;;;;;14.55;11.23;;;12.90;99.90;;;;;;5064449;28;20740;-39
2022/10/31 08:01:53;;;;;;;14.27;11.13;;;13.00;99.90;;;;;;5069655;28;20028;-39
2022/10/31 08:04:18;;;;;;;12.80;10.10;;;13.10;99.90;;;;;;5067496;28;20385;-39
2022/10/31 08:06:44;;;;;;;12.43;9.60;;;13.10;99.90;;;;;;5069882;28;20056;-39
2022/10/31 08:09:09;;;;;;;13.02;10.38;;;13.10;99.90;;;;;;5065541;28;20104;-41
2022/10/31 08:11:38;;;;;;;12.77;9.73;;;13.20;99.90;;;;;;5064405;28;20316;-39
2022/10/31 08:14:03;;;;;;;14.48;10.07;;;13.20;99.90;;;;;;5074587;28;20036;-38
2022/10/31 08:16:29;;;;;;;12.77;10.05;;;13.30;99.90;;;;;;5063165;28;20086;-37
2022/10/31 08:18:55;;;;;;;11.98;9.50;;;13.30;99.90;;;;;;5067323;28;20067;-39
2022/10/31 08:21:21;;;;;;;13.75;10.02;;;13.40;99.90;;;;;;5066456;28;20851;-40
2022/10/31 08:23:47;;;;;;;12.77;10.15;;;13.40;99.90;;;;;;5062401;28;20034;-37
2022/10/31 08:26:15;;;;;;;14.00;9.82;;;13.50;99.90;;;;;;5065220;28;21176;-38
2022/10/31 08:28:40;;;;;;;12.27;9.90;;;13.50;99.90;;;;;;5063005;28;20035;-39
2022/10/31 08:31:06;;;;;;;13.40;10.20;;;13.60;99.90;;;;;;5063044;28;20024;-39
2022/10/31 08:33:32;;;;;;;11.82;9.38;;;13.60;99.90;;;;;;5064378;28;20101;-39
2022/10/31 08:36:00;;;;;;;11.65;9.88;;;13.70;99.90;;;;;;5070246;28;20031;-40
2022/10/31 08:38:26;;;;;;;11.63;9.38;;;13.70;99.90;;;;;;5078129;28;20032;-39
2022/10/31 08:40:51;;;;;;;13.02;9.82;;;13.70;99.90;;;;;;5076135;28;20309;-38
2022/10/31 08:43:18;;;;;;;11.13;8.60;;;13.70;99.90;;;;;;5079991;28;20372;-39
2022/10/31 08:45:47;;;;;;;13.80;9.88;;;13.70;99.90;;;;;;5077322;28;20060;-36
2022/10/31 08:48:14;;;;;;;13.48;9.60;;;13.70;99.90;;;;;;5075149;28;20056;-40
2022/10/31 08:50:40;;;;;;;13.43;10.75;;;13.80;99.90;;;;;;5080100;28;20074;-39
2022/10/31 08:53:13;;;;;;;12.25;10.15;;;13.70;99.90;;;;;;5073841;28;20032;-40
2022/10/31 08:55:39;;;;;;;;;;;13.80;99.90;;;;;;5066169;28;20471;-40
2022/10/31 08:58:07;;;;;;;11.80;10.57;;;13.80;99.90;;;;;;5079910;28;19914;-39
2022/10/31 09:00:33;;;;;;;15.15;11.70;;;13.80;99.90;;;;;;5082331;28;20857;-39
2022/10/31 09:03:02;;;;;;;13.57;10.80;;;13.90;99.90;;;;;;5073353;28;20032;-40
2022/10/31 09:05:28;;;;;;;14.90;11.50;;;13.90;99.90;;;;;;5083406;28;20134;-39
2022/10/31 09:07:58;;;;;;;15.05;12.05;;;14.00;99.90;;;;;;5074665;28;20582;-40
2022/10/31 09:10:24;;;;;;;15.07;11.85;;;14.10;99.90;;;;;;5076177;28;20024;-38
2022/10/31 09:13:10;;;;;;;14.38;11.10;;;14.20;99.90;;;;;;5069347;28;20089;-39
2022/10/31 09:15:38;;;;;;;14.27;11.05;;;14.20;99.90;;;;;;5083935;28;20105;-38
2022/10/31 09:18:08;;;;;;;11.63;10.20;;;14.30;99.90;;;;;;5076205;28;20096;-36
2022/10/31 09:20:35;;;;;;;12.68;9.80;;;14.30;99.90;;;;;;5064020;28;20040;-39
2022/10/31 09:23:07;;;;;;;12.60;9.43;;;14.40;99.90;;;;;;5075372;28;20125;-39
2022/10/31 09:25:34;;;;;;;11.75;9.38;;;14.40;99.90;;;;;;5062159;28;20032;-36
2022/10/31 09:28:00;;;;;;;11.63;9.82;;;14.40;99.90;;;;;;5063977;28;20032;-39
2022/10/31 09:30:29;;;;;;;11.40;10.07;;;14.50;99.90;;;;;;5074730;28;20017;-39
2022/10/31 09:32:56;;;;;;;11.70;10.15;;;14.50;99.90;;;;;;5072482;28;20036;-40
2022/10/31 09:35:22;;;;;;;12.80;10.43;;;14.60;99.90;;;;;;5070366;28;20104;-40
2022/10/31 09:37:53;;;;;;;13.80;11.77;;;14.70;99.90;;;;;;5066202;28;20028;-41
2022/10/31 09:40:18;;;;;;;17.67;13.10;;;14.80;99.90;;;;;;5072596;28;20035;-40
2022/10/31 09:43:13;;;;;;;15.23;11.82;;;14.80;99.90;;;;;;5076723;28;20020;-39
2022/10/31 09:45:55;;;;;;;12.02;10.38;;;14.90;99.90;;;;;;5081901;28;20020;-37
2022/10/31 09:48:56;;;;;;;13.65;10.25;;;14.90;99.90;;;;;;5072560;28;20027;-38
2022/10/31 09:51:40;;;;;;;17.88;10.15;;;15.00;99.90;;;;;;5062431;28;20040;-37
2022/10/31 09:54:15;;;;;;;12.38;9.10;;;15.10;99.90;;;;;;5076193;28;20155;-39
2022/10/31 09:56:42;;;;;;;10.95;9.10;;;15.10;99.90;;;;;;5062692;28;20059;-39
2022/10/31 09:59:31;;;;;;;10.73;9.27;;;15.20;99.90;;;;;;5075477;28;20020;-40
2022/10/31 10:02:02;;;;;;;12.68;9.70;;;15.20;99.90;;;;;;5062513;28;20040;-39
2022/10/31 10:04:46;;;;;;;13.45;9.88;;;15.20;99.90;;;;;;5074748;28;20036;-39
2022/10/31 10:07:38;;;;;;;12.30;9.88;;;15.30;99.90;;;;;;5062555;28;20113;-39
2022/10/31 10:10:35;;;;;;;10.18;9.05;;;15.30;99.90;;;;;;5080007;28;20404;-37
2022/10/31 10:13:12;;;;;;;12.43;9.30;;;15.40;99.90;;;;;;5080661;28;20178;-38
2022/10/31 10:16:22;;;;;;;11.63;8.50;;;15.50;99.90;;;;;;5072905;28;20745;-37
2022/10/31 10:19:17;;;;;;;10.77;9.15;;;15.50;99.90;;;;;;5077201;28;20542;-40
2022/10/31 10:22:01;;;;;;;11.73;9.32;;;15.60;99.90;;;;;;5079837;28;20082;-39
2022/10/31 10:24:55;;;;;;;13.57;10.93;;;15.70;99.90;;;;;;5073023;28;20034;-38
2022/10/31 10:27:45;;;;;;;14.63;10.48;;;15.80;99.90;;;;;;5062770;28;20032;-39
2022/10/31 10:30:23;;;;;;;14.48;11.40;;;15.80;99.90;;;;;;5075121;28;20040;-40
2022/10/31 10:32:55;;;;;;;15.52;11.68;;;15.80;99.90;;;;;;5062229;28;20040;-40
2022/10/31 10:35:36;;;;;;;15.45;10.75;;;15.90;99.90;;;;;;5074965;28;20040;-39
2022/10/31 10:38:15;;;;;;;13.70;10.40;;;15.90;99.90;;;;;;5082271;28;20043;-40
2022/10/31 10:40:41;;;;;;;14.18;11.10;;;16.00;99.90;;;;;;5069169;28;20761;-40
2022/10/31 10:43:22;;;;;;;15.30;11.90;;;16.00;99.90;;;;;;5081855;28;20745;-39
2022/10/31 10:49:18;;;;;;;15.40;11.60;;;16.00;99.90;;;;;;5068416;28;20043;-40
2022/10/31 10:51:46;;;;;;;18.98;12.68;;;16.00;99.90;;;;;;5075931;28;20032;-39
2022/10/31 10:54:37;;;;;;;19.02;12.60;;;16.00;99.90;;;;;;5080701;28;20043;-39
2022/10/31 10:57:30;;;;;;;16.65;11.93;;;16.00;99.90;;;;;;5078600;28;20027;-40
2022/10/31 10:59:55;;;;;;;16.77;11.82;;;16.00;99.90;;;;;;5074992;28;20494;-39
2022/10/31 11:02:26;;;;;;;15.02;11.68;;;16.10;99.90;;;;;;5078107;28;20028;-39
2022/10/31 11:05:01;;;;;;;18.77;11.15;;;16.20;99.90;;;;;;5085557;28;20036;-40
2022/10/31 11:07:38;;;;;;;16.60;11.27;;;16.20;99.90;;;;;;5082010;28;20024;-39
2022/10/31 11:10:12;;;;;;;15.25;10.40;;;16.30;99.90;;;;;;5082179;28;20414;-40
2022/10/31 11:12:38;;;;;;;13.45;10.23;;;16.40;99.90;;;;;;5062496;28;20026;-40
2022/10/31 11:15:24;;;;;;;15.57;10.50;;;16.40;99.90;;;;;;5085664;28;20494;-38
2022/10/31 11:17:52;;;;;;;17.55;11.55;;;16.50;99.90;;;;;;5083252;28;20032;-39
2022/10/31 11:20:18;;;;;;;17.13;10.73;;;16.60;99.90;;;;;;5084047;28;20025;-39
2022/10/31 11:22:46;;;;;;;15.88;10.80;;;16.70;99.90;;;;;;5080027;28;20027;-36
2022/10/31 11:25:31;;;;;;;18.48;11.77;;;16.80;99.90;;;;;;5085068;28;20016;-35
2022/10/31 11:28:05;;;;;;;15.63;11.02;;;16.80;99.90;;;;;;5080466;28;20039;-38
2022/10/31 11:30:43;;;;;;;16.17;11.52;;;16.80;99.90;;;;;;5083616;28;20487;-39
2022/10/31 11:33:25;;;;;;;19.00;12.02;;;16.90;99.90;;;;;;5079548;28;20516;-36
2022/10/31 11:35:53;;;;;;;15.45;11.73;;;16.90;99.90;;;;;;5084424;28;20020;-41
2022/10/31 11:38:21;;;;;;;17.05;12.60;;;16.90;99.90;;;;;;5078637;28;20016;-38
2022/10/31 11:41:07;;;;;;;16.42;12.50;;;16.90;99.90;;;;;;5084174;28;20035;-40
2022/10/31 11:43:32;;;;;;;19.33;12.70;;;16.90;99.90;;;;;;5082362;28;20039;-39
2022/10/31 11:45:58;;;;;;;22.25;14.40;;;16.90;99.90;;;;;;5084178;28;20043;-40
2022/10/31 11:48:25;;;;;;;18.50;13.43;;;16.90;99.90;;;;;;5077129;28;20797;-41
2022/10/31 11:50:58;;;;;;;19.10;14.32;;;16.90;99.90;;;;;;5064351;28;20029;-39
2022/10/31 11:53:32;;;;;;;18.92;13.73;;;16.90;99.90;;;;;;5072891;28;20131;-39
2022/10/31 11:56:05;;;;;;;18.95;13.30;;;16.90;99.90;;;;;;5084432;28;20410;-40
2022/10/31 11:58:31;;;;;;;18.77;13.07;;;16.90;99.90;;;;;;5066368;28;20398;-40
2022/10/31 12:00:58;;;;;;;18.80;13.50;;;17.00;99.90;;;;;;5062452;28;20025;-41
2022/10/31 12:03:23;;;;;;;17.08;13.32;;;17.10;99.90;;;;;;5070516;28;20031;-40
2022/10/31 12:05:54;;;;;;;18.00;13.32;;;17.10;99.90;;;;;;5063836;28;20027;-40
2022/10/31 12:08:22;;;;;;;20.73;13.95;;;17.10;99.90;;;;;;5072868;28;20061;-39
2022/10/31 12:11:00;;;;;;;20.98;14.13;;;17.10;99.90;;;;;;5070151;28;20444;-39
2022/10/31 12:13:55;;;;;;;21.13;13.82;;;17.20;99.90;;;;;;5076303;28;20047;-38
2022/10/31 12:16:29;;;;;;;19.05;12.85;;;17.20;99.90;;;;;;5082586;28;20028;-39
2022/10/31 12:19:04;;;;;;;19.60;13.73;;;17.30;99.90;;;;;;5066115;28;20017;-39
2022/10/31 12:21:48;;;;;;;21.40;13.35;;;17.30;99.90;;;;;;5062485;28;20126;-40
2022/10/31 12:24:28;;;;;;;22.27;15.00;;;17.30;99.90;;;;;;5068108;28;20025;-39
2022/10/31 12:27:20;;;;;;;20.45;14.30;;;17.30;99.90;;;;;;5066553;28;20055;-40
2022/10/31 12:30:09;;;;;;;17.08;13.02;;;17.30;99.90;;;;;;5070487;28;20070;-41
2022/10/31 12:32:56;;;;;;;19.58;13.23;;;17.30;99.90;;;;;;5070878;28;20056;-34
2022/10/31 12:35:57;;;;;;;20.17;14.52;;;17.30;99.90;;;;;;5063626;28;20044;-40
2022/10/31 12:38:33;;;;;;;22.52;13.38;;;17.40;99.90;;;;;;5038403;28;20777;-40
2022/10/31 12:41:23;;;;;;;23.77;15.52;;;17.40;99.90;;;;;;5062749;28;20029;-41
2022/10/31 12:44:01;;;;;;;21.77;14.00;;;17.40;99.90;;;;;;5072007;28;20093;-40
2022/10/31 12:47:00;;;;;;;25.02;14.68;;;17.50;99.90;;;;;;5073369;28;20033;-39
2022/10/31 12:49:44;;;;;;;25.45;17.00;;;17.50;99.90;;;;;;5068521;28;20032;-40
2022/10/31 12:52:47;;;;;;;22.02;15.90;;;17.50;99.90;;;;;;5069567;28;20141;-40
2022/10/31 12:55:32;;;;;;;25.00;16.13;;;17.60;99.90;;;;;;5070331;28;20062;-37
2022/10/31 12:58:17;;;;;;;20.88;13.75;;;17.60;99.90;;;;;;5066616;28;20605;-39
2022/10/31 13:00:48;;;;;;;22.60;14.43;;;17.60;99.90;;;;;;5063141;28;20661;-38